Time;durP1;ratioP1;P1;durP2;ratioP2;P2;SDS_P1;SDS_P2;PMS_P1;PMS_P2;Temp;Humidity;BMP_temperature;BMP_pressure;BME280_temperature;BME280_humidity;BME280_pressure;Samples;Min_cycle;Max_cycle;Signal;HPM_P1;HPM_P2
2021/05/10 03:56:34;;;;;;;7.15;2.50;;;6.10;99.90;;;;;;4991464;28;20491;-72
2021/05/10 03:59:00;;;;;;;11.65;2.53;;;6.10;99.90;;;;;;4991992;28;20081;-72
2021/05/10 04:01:25;;;;;;;10.23;2.55;;;6.10;99.90;;;;;;4992146;28;20026;-71
2021/05/10 04:04:02;;;;;;;4.28;2.33;;;6.10;99.90;;;;;;4991866;28;20040;-72
2021/05/10 04:06:44;;;;;;;8.18;2.95;;;6.10;99.90;;;;;;4991819;28;20040;-71
2021/05/10 04:14:52;;;;;;;6.15;2.70;;;6.00;99.90;;;;;;4990566;28;20044;-72
2021/05/10 04:17:18;;;;;;;5.47;2.38;;;6.00;99.90;;;;;;4991844;28;20409;-71
2021/05/10 04:19:43;;;;;;;15.20;3.22;;;6.10;99.90;;;;;;4991875;28;20037;-71
2021/05/10 04:22:09;;;;;;;7.45;2.63;;;6.10;99.90;;;;;;4991903;28;20020;-72
2021/05/10 04:24:35;;;;;;;8.10;2.58;;;6.00;99.90;;;;;;4991578;28;20031;-72
2021/05/10 04:27:04;;;;;;;3.72;2.35;;;6.10;99.90;;;;;;4992176;28;20028;-71
2021/05/10 04:29:30;;;;;;;6.03;2.33;;;6.10;99.90;;;;;;4991771;28;20109;-70
2021/05/10 04:31:55;;;;;;;11.00;2.60;;;6.10;99.90;;;;;;4991538;28;20085;-69
2021/05/10 04:34:21;;;;;;;10.18;2.67;;;6.10;99.90;;;;;;4991759;28;20035;-68
2021/05/10 04:36:47;;;;;;;10.68;2.60;;;6.10;99.90;;;;;;4991649;28;20045;-67
2021/05/10 04:39:12;;;;;;;11.85;2.70;;;6.10;99.90;;;;;;4991533;28;20054;-68
2021/05/10 04:41:38;;;;;;;10.48;3.00;;;6.30;99.90;;;;;;4974326;28;20068;-67
2021/05/10 04:44:04;;;;;;;8.45;2.55;;;6.30;99.90;;;;;;4991837;28;20019;-69
2021/05/10 04:46:30;;;;;;;10.52;3.05;;;6.20;99.90;;;;;;4992461;28;20027;-74
2021/05/10 04:48:55;;;;;;;8.38;2.72;;;6.20;99.90;;;;;;4995079;28;20057;-80
2021/05/10 04:51:21;;;;;;;6.57;2.70;;;6.20;99.90;;;;;;4995006;28;20030;-71
2021/05/10 04:53:47;;;;;;;8.65;2.88;;;6.20;99.90;;;;;;4995070;28;20126;-73
2021/05/10 04:56:12;;;;;;;7.07;2.65;;;6.20;99.90;;;;;;4994842;28;20112;-73
2021/05/10 04:58:38;;;;;;;7.65;3.00;;;6.20;99.90;;;;;;4995121;28;20557;-72
2021/05/10 05:01:04;;;;;;;8.23;2.65;;;6.30;99.90;;;;;;4994883;28;20037;-75
2021/05/10 05:03:30;;;;;;;7.63;2.75;;;6.30;99.90;;;;;;4994800;28;20391;-72
2021/05/10 05:05:55;;;;;;;8.10;2.75;;;6.30;99.90;;;;;;4994580;28;20030;-73
2021/05/10 05:08:21;;;;;;;11.15;3.28;;;6.30;99.90;;;;;;4994596;28;20029;-73
2021/05/10 05:10:47;;;;;;;12.88;3.78;;;6.30;99.90;;;;;;4994696;28;20042;-73
2021/05/10 05:13:22;;;;;;;14.35;4.50;;;6.30;99.90;;;;;;4994579;28;20067;-73
2021/05/10 05:15:48;;;;;;;10.50;2.95;;;6.30;99.90;;;;;;4994790;28;20022;-73
2021/05/10 05:18:14;;;;;;;10.40;3.28;;;6.30;99.90;;;;;;4994481;28;20050;-73
2021/05/10 05:20:40;;;;;;;8.70;3.28;;;6.30;99.90;;;;;;4994808;28;20053;-73
2021/05/10 05:23:21;;;;;;;8.88;3.72;;;6.30;99.90;;;;;;4988076;28;20054;-69
2021/05/10 05:25:56;;;;;;;11.85;3.30;;;6.30;99.90;;;;;;4994788;28;20450;-69
2021/05/10 05:28:23;;;;;;;13.77;3.90;;;6.40;99.90;;;;;;4994143;28;20474;-72
2021/05/10 05:30:49;;;;;;;20.75;4.20;;;6.40;99.90;;;;;;4994261;28;20045;-72
2021/05/10 05:33:15;;;;;;;12.57;3.83;;;6.40;99.90;;;;;;4993942;28;20038;-72
2021/05/10 05:35:41;;;;;;;22.25;4.10;;;6.30;99.90;;;;;;4994107;28;20026;-72
2021/05/10 05:38:09;;;;;;;9.45;3.25;;;6.40;99.90;;;;;;4994196;28;20475;-72
2021/05/10 05:40:36;;;;;;;13.75;3.90;;;6.40;99.90;;;;;;4994138;28;20026;-72
2021/05/10 05:43:02;;;;;;;8.55;3.60;;;6.40;99.90;;;;;;4976471;28;20034;-72
2021/05/10 05:45:28;;;;;;;15.02;4.00;;;6.40;99.90;;;;;;4993741;28;20022;-72
2021/05/10 05:47:53;;;;;;;9.05;3.53;;;6.40;99.90;;;;;;4994147;28;20037;-72
2021/05/10 05:50:19;;;;;;;17.15;4.10;;;6.40;99.90;;;;;;4994309;28;20062;-72
2021/05/10 05:52:45;;;;;;;10.48;3.97;;;6.40;99.90;;;;;;4994302;28;20029;-72
2021/05/10 05:55:12;;;;;;;20.20;4.07;;;6.40;99.90;;;;;;4994202;28;20035;-72
2021/05/10 05:57:38;;;;;;;12.27;3.75;;;6.50;99.90;;;;;;4993635;28;20425;-73
2021/05/10 06:00:05;;;;;;;10.00;4.45;;;6.40;99.90;;;;;;4993898;28;20022;-70
2021/05/10 06:02:30;;;;;;;13.77;3.60;;;6.40;99.90;;;;;;4993637;28;20030;-69
2021/05/10 06:04:56;;;;;;;11.13;3.25;;;6.40;99.90;;;;;;4994096;28;20040;-69
2021/05/10 06:07:22;;;;;;;10.38;3.63;;;6.50;99.90;;;;;;4993652;28;20023;-68
2021/05/10 06:09:48;;;;;;;10.07;3.95;;;6.50;99.90;;;;;;4993662;28;20025;-68
2021/05/10 06:12:14;;;;;;;13.48;3.35;;;6.50;99.90;;;;;;4993898;28;20049;-66
2021/05/10 06:14:40;;;;;;;18.50;3.83;;;6.50;99.90;;;;;;4993283;28;20161;-67
2021/05/10 06:17:05;;;;;;;13.73;4.20;;;6.60;99.90;;;;;;4993790;28;20018;-67
2021/05/10 06:19:33;;;;;;;10.25;3.08;;;6.70;99.90;;;;;;4993557;28;20502;-67
2021/05/10 06:21:58;;;;;;;9.68;3.58;;;6.60;99.90;;;;;;4993682;28;20034;-67
2021/05/10 06:24:24;;;;;;;12.50;3.67;;;6.60;99.90;;;;;;4993353;28;20033;-67
2021/05/10 06:26:50;;;;;;;7.97;3.95;;;6.60;99.90;;;;;;4993272;28;20105;-67
2021/05/10 06:29:16;;;;;;;6.57;2.83;;;6.60;99.90;;;;;;4993192;28;20494;-67
2021/05/10 06:31:42;;;;;;;7.47;3.60;;;6.60;99.90;;;;;;4993230;28;20027;-67
2021/05/10 06:34:07;;;;;;;7.82;3.33;;;6.60;99.90;;;;;;4993126;28;20026;-67
2021/05/10 06:36:33;;;;;;;18.35;4.65;;;6.60;99.90;;;;;;4992968;28;20525;-68
2021/05/10 06:38:59;;;;;;;6.63;2.67;;;6.70;99.90;;;;;;4993008;28;20019;-68
2021/05/10 06:41:24;;;;;;;8.60;3.42;;;7.00;99.90;;;;;;4975204;28;20246;-68
2021/05/10 06:43:50;;;;;;;11.63;3.65;;;7.40;99.90;;;;;;4993143;28;20019;-68
2021/05/10 06:46:16;;;;;;;6.75;3.03;;;7.20;99.90;;;;;;4993082;28;20096;-70
2021/05/10 06:48:42;;;;;;;11.00;3.33;;;7.10;99.90;;;;;;4995286;28;20031;-70
2021/05/10 06:51:07;;;;;;;5.32;3.05;;;7.10;99.90;;;;;;4992756;28;20494;-68
2021/05/10 06:53:33;;;;;;;8.75;3.15;;;7.00;99.90;;;;;;4992480;28;20038;-71
2021/05/10 06:55:59;;;;;;;5.32;2.47;;;7.10;99.90;;;;;;4991986;28;20042;-72
2021/05/10 06:58:24;;;;;;;5.25;2.95;;;7.10;99.90;;;;;;4992279;28;20022;-71
2021/05/10 07:00:52;;;;;;;7.22;3.00;;;7.10;99.90;;;;;;4992440;28;20113;-71
2021/05/10 07:03:19;;;;;;;4.65;2.75;;;7.20;99.90;;;;;;4992420;28;20025;-71
2021/05/10 07:05:45;;;;;;;5.30;2.97;;;7.20;99.90;;;;;;4986071;28;20053;-72
2021/05/10 07:08:12;;;;;;;5.38;2.38;;;7.20;99.90;;;;;;4992071;28;20033;-72
2021/05/10 07:10:38;;;;;;;5.10;2.60;;;7.10;99.90;;;;;;4990901;28;20034;-66
2021/05/10 07:13:05;;;;;;;7.68;2.92;;;7.20;99.90;;;;;;4992392;28;20126;-67
2021/05/10 07:15:33;;;;;;;5.88;2.65;;;7.20;99.90;;;;;;4992698;28;20132;-67
2021/05/10 07:18:10;;;;;;;6.65;2.97;;;7.20;99.90;;;;;;4992631;28;20390;-67
2021/05/10 07:20:37;;;;;;;5.28;2.72;;;7.20;99.90;;;;;;4992125;28;20478;-67
2021/05/10 07:23:05;;;;;;;5.50;2.90;;;7.20;99.90;;;;;;4992179;28;20478;-67
2021/05/10 07:25:40;;;;;;;6.03;2.45;;;7.20;99.90;;;;;;4991996;28;20498;-66
2021/05/10 07:28:06;;;;;;;8.25;3.13;;;7.20;99.90;;;;;;4992264;28;20474;-67
2021/05/10 07:30:32;;;;;;;4.72;2.63;;;7.10;99.90;;;;;;4992260;28;20069;-66
2021/05/10 07:32:58;;;;;;;3.35;2.38;;;7.10;99.90;;;;;;4992098;28;20034;-67
2021/05/10 07:35:24;;;;;;;6.57;2.75;;;7.10;99.90;;;;;;4989692;28;20049;-67
2021/05/10 07:37:49;;;;;;;4.10;2.30;;;7.10;99.90;;;;;;4992318;28;20034;-66
2021/05/10 07:40:21;;;;;;;2.80;2.40;;;7.20;99.90;;;;;;4991983;28;20113;-66
2021/05/10 07:42:47;;;;;;;4.93;2.45;;;7.20;99.90;;;;;;4992316;28;20378;-66
2021/05/10 07:45:13;;;;;;;4.95;2.90;;;7.30;99.90;;;;;;4992200;28;20130;-67
2021/05/10 07:47:38;;;;;;;2.60;1.95;;;7.50;99.90;;;;;;4991521;28;20370;-68
2021/05/10 07:50:05;;;;;;;5.65;2.45;;;7.90;99.90;;;;;;4992003;28;20105;-68
2021/05/10 07:52:31;;;;;;;4.13;1.95;;;8.10;99.90;;;;;;4991909;28;20030;-68
2021/05/10 07:54:56;;;;;;;5.82;1.98;;;8.30;99.90;;;;;;4985987;28;20114;-68
2021/05/10 07:57:23;;;;;;;4.32;2.15;;;8.90;99.90;;;;;;4986153;28;20039;-68
2021/05/10 07:59:50;;;;;;;3.03;1.70;;;9.00;99.90;;;;;;4991866;28;20054;-68
2021/05/10 08:02:18;;;;;;;4.35;1.50;;;8.60;99.90;;;;;;4991889;28;20390;-67
2021/05/10 08:04:44;;;;;;;3.25;1.40;;;8.30;99.90;;;;;;4991459;28;20025;-67
2021/05/10 08:07:09;;;;;;;4.13;1.65;;;8.00;99.90;;;;;;4992067;28;20026;-67
2021/05/10 08:09:35;;;;;;;4.47;1.70;;;7.80;99.90;;;;;;4991497;28;20045;-67
2021/05/10 08:12:01;;;;;;;3.25;2.00;;;7.70;99.90;;;;;;4991753;28;20040;-67
2021/05/10 08:14:29;;;;;;;5.68;2.00;;;7.60;99.90;;;;;;4991265;28;20038;-67
2021/05/10 08:16:55;;;;;;;4.25;1.75;;;7.60;99.90;;;;;;4991673;28;20022;-67
2021/05/10 08:19:20;;;;;;;2.53;1.73;;;7.70;99.90;;;;;;4991849;28;20659;-68
2021/05/10 08:21:46;;;;;;;2.47;1.50;;;7.60;99.90;;;;;;4993290;28;20458;-68
2021/05/10 08:24:12;;;;;;;2.83;1.58;;;7.60;99.90;;;;;;4995754;28;20058;-67
2021/05/10 08:26:38;;;;;;;2.88;1.70;;;7.60;99.90;;;;;;4995458;28;20019;-67
2021/05/10 08:29:03;;;;;;;5.05;2.15;;;7.60;99.90;;;;;;4995429;28;20418;-68
2021/05/10 08:31:29;;;;;;;5.45;1.83;;;7.50;99.90;;;;;;4995111;28;20025;-68
2021/05/10 08:33:55;;;;;;;3.65;2.03;;;7.50;99.90;;;;;;4995546;28;20030;-67
2021/05/10 08:36:20;;;;;;;4.10;2.20;;;7.60;99.90;;;;;;4995366;28;20045;-67
2021/05/10 08:38:48;;;;;;;4.65;2.10;;;7.60;99.90;;;;;;4995079;28;20029;-67
2021/05/10 08:41:14;;;;;;;1.65;1.55;;;7.60;99.90;;;;;;4995521;28;20109;-67
2021/05/10 08:43:40;;;;;;;4.55;2.63;;;7.60;99.90;;;;;;4994836;28;20093;-67
2021/05/10 08:46:06;;;;;;;4.22;1.92;;;7.70;99.90;;;;;;4995087;28;20382;-67
2021/05/10 08:48:32;;;;;;;3.05;2.05;;;7.70;99.90;;;;;;4994903;28;20030;-67
2021/05/10 08:50:58;;;;;;;3.33;2.45;;;7.70;99.90;;;;;;4994833;28;20549;-67
2021/05/10 08:53:38;;;;;;;3.85;1.88;;;7.70;99.90;;;;;;4994837;28;20483;-67
2021/05/10 08:56:05;;;;;;;4.15;2.30;;;7.80;99.90;;;;;;4994737;28;20073;-67
2021/05/10 08:58:43;;;;;;;3.42;1.90;;;7.80;99.90;;;;;;4994817;28;20515;-67
2021/05/10 09:01:10;;;;;;;4.75;2.00;;;7.80;99.90;;;;;;4994858;28;20030;-67
2021/05/10 09:03:41;;;;;;;3.97;2.40;;;7.90;99.90;;;;;;4994682;28;20106;-67
2021/05/10 09:06:18;;;;;;;3.70;2.00;;;7.90;99.90;;;;;;4995070;28;20105;-67
2021/05/10 09:08:49;;;;;;;3.22;2.38;;;7.90;99.90;;;;;;4994768;28;20078;-67
2021/05/10 09:11:19;;;;;;;2.63;2.17;;;7.90;99.90;;;;;;4995133;28;20092;-67
2021/05/10 09:13:55;;;;;;;6.22;2.03;;;7.90;99.90;;;;;;4994346;28;20133;-67
2021/05/10 09:16:21;;;;;;;4.85;1.85;;;8.00;99.90;;;;;;4977100;28;20565;-67
2021/05/10 09:18:58;;;;;;;3.05;1.80;;;8.00;99.90;;;;;;4994421;28;20030;-67
2021/05/10 09:21:26;;;;;;;2.10;1.80;;;7.90;99.90;;;;;;4994776;28;20117;-67
2021/05/10 09:23:52;;;;;;;2.88;2.08;;;7.90;99.90;;;;;;4994719;28;20395;-67
2021/05/10 09:26:30;;;;;;;3.78;2.20;;;7.90;99.90;;;;;;4994660;28;20033;-67
2021/05/10 09:28:57;;;;;;;3.75;2.13;;;7.80;99.90;;;;;;4994531;28;20029;-67
2021/05/10 09:31:23;;;;;;;2.70;2.00;;;7.70;99.90;;;;;;4994526;28;20026;-67
2021/05/10 09:33:49;;;;;;;2.50;1.48;;;7.70;99.90;;;;;;4993958;28;20034;-67
2021/05/10 09:36:44;;;;;;;5.50;2.42;;;7.80;99.90;;;;;;4994650;28;20069;-67
2021/05/10 09:39:35;;;;;;;3.28;1.90;;;7.80;99.90;;;;;;4977452;28;20030;-67
2021/05/10 09:42:03;;;;;;;2.00;1.80;;;7.90;99.90;;;;;;4994000;28;20030;-67
2021/05/10 09:44:42;;;;;;;2.00;1.70;;;7.80;99.90;;;;;;4993930;28;20068;-67
2021/05/10 09:47:08;;;;;;;1.70;1.50;;;7.80;99.90;;;;;;4994063;28;20033;-67
2021/05/10 09:49:44;;;;;;;2.10;1.35;;;7.80;99.90;;;;;;4993771;28;20390;-67
2021/05/10 09:52:24;;;;;;;3.00;1.50;;;7.90;99.90;;;;;;4993949;28;20061;-66
2021/05/10 09:55:01;;;;;;;2.05;1.63;;;8.00;99.90;;;;;;4993652;28;20026;-67
2021/05/10 09:57:27;;;;;;;1.83;1.27;;;7.90;99.90;;;;;;4993588;28;20046;-64
2021/05/10 10:00:15;;;;;;;1.33;1.23;;;8.10;99.90;;;;;;4993570;28;20026;-68
2021/05/10 10:02:41;;;;;;;1.55;1.10;;;9.10;99.90;;;;;;4993826;28;20072;-70
2021/05/10 10:05:09;;;;;;;2.00;1.73;;;8.80;99.90;;;;;;4993778;28;20022;-67
2021/05/10 10:07:41;;;;;;;2.38;1.60;;;8.60;99.90;;;;;;4993648;28;20031;-67
2021/05/10 10:10:08;;;;;;;3.42;1.67;;;8.40;99.90;;;;;;4993717;28;20042;-69
2021/05/10 10:12:34;;;;;;;7.13;1.50;;;8.40;99.90;;;;;;4993842;28;20554;-65
2021/05/10 10:15:00;;;;;;;3.63;1.40;;;8.30;99.90;;;;;;4993436;28;20073;-67
2021/05/10 10:17:26;;;;;;;2.25;1.60;;;8.40;99.90;;;;;;4976109;28;20053;-64
2021/05/10 10:19:57;;;;;;;2.70;1.60;;;8.30;99.90;;;;;;4990048;28;20075;-66
2021/05/10 10:22:23;;;;;;;;;;;8.50;99.90;;;;;;4998288;28;20085;-67
2021/05/10 10:24:49;;;;;;;2.88;1.27;;;8.60;99.90;;;;;;4986266;28;20013;-66
2021/05/10 10:27:17;;;;;;;2.20;1.52;;;8.50;99.90;;;;;;4992688;28;20054;-67
2021/05/10 10:29:46;;;;;;;4.45;1.80;;;8.40;99.90;;;;;;4985449;28;20034;-67
2021/05/10 10:32:17;;;;;;;2.95;1.85;;;8.30;99.90;;;;;;4987310;28;20606;-67
2021/05/10 10:34:46;;;;;;;1.60;1.35;;;8.20;99.90;;;;;;4981520;28;20118;-67
2021/05/10 10:37:13;;;;;;;1.92;1.60;;;8.20;99.90;;;;;;4985339;28;20027;-67
2021/05/10 10:39:52;;;;;;;2.83;2.10;;;8.10;99.90;;;;;;4992799;28;20022;-67
2021/05/10 10:42:28;;;;;;;2.60;1.90;;;8.20;99.90;;;;;;4971034;28;20081;-66
2021/05/10 10:44:58;;;;;;;2.75;2.47;;;8.20;99.90;;;;;;4992379;28;20383;-67
2021/05/10 10:47:52;;;;;;;3.88;2.72;;;8.20;99.90;;;;;;4989761;28;20022;-65
2021/05/10 10:50:20;;;;;;;3.15;2.65;;;8.10;99.90;;;;;;4993011;28;20470;-67
2021/05/10 10:52:48;;;;;;;4.15;2.60;;;8.10;99.90;;;;;;4985983;28;20036;-67
2021/05/10 10:55:33;;;;;;;3.95;3.03;;;8.10;99.90;;;;;;4982491;28;20452;-68
2021/05/10 10:58:15;;;;;;;5.07;2.97;;;8.10;99.90;;;;;;4990492;28;20037;-68
2021/05/10 11:01:06;;;;;;;12.02;7.10;;;8.10;99.90;;;;;;4991993;28;20602;-66
2021/05/10 11:03:34;;;;;;;8.98;5.32;;;8.10;99.90;;;;;;4982723;28;20031;-66
2021/05/10 11:06:04;;;;;;;4.82;3.53;;;8.10;99.90;;;;;;4992025;28;20041;-66
2021/05/10 11:08:39;;;;;;;;;;;8.10;99.90;;;;;;4992619;28;20386;-66
2021/05/10 11:11:09;;;;;;;3.67;2.70;;;8.10;99.90;;;;;;4992320;28;20231;-66
2021/05/10 11:13:42;;;;;;;3.25;2.95;;;8.00;99.90;;;;;;4992144;28;20049;-67
2021/05/10 11:16:13;;;;;;;4.95;3.08;;;8.00;99.90;;;;;;4991846;28;20490;-66
2021/05/10 11:18:52;;;;;;;6.53;2.83;;;8.00;99.90;;;;;;4992313;28;20019;-66
2021/05/10 11:21:24;;;;;;;11.63;2.95;;;7.90;99.90;;;;;;4992151;28;20038;-66
2021/05/10 11:23:57;;;;;;;2.83;2.22;;;8.00;99.90;;;;;;4991781;28;20053;-66
2021/05/10 11:26:52;;;;;;;4.63;2.20;;;8.00;99.90;;;;;;4991561;28;20022;-66
2021/05/10 11:29:24;;;;;;;4.85;2.20;;;7.90;99.90;;;;;;4988150;28;20081;-66
2021/05/10 11:31:51;;;;;;;3.55;2.30;;;7.90;99.90;;;;;;4991780;28;20532;-66
2021/05/10 11:34:33;;;;;;;4.22;2.47;;;7.90;99.90;;;;;;4991577;28;20501;-66
2021/05/10 11:37:00;;;;;;;2.83;2.45;;;7.90;99.90;;;;;;4989634;28;20470;-66
2021/05/10 11:39:28;;;;;;;5.25;3.40;;;8.00;99.90;;;;;;4991820;28;20027;-67
2021/05/10 11:42:00;;;;;;;6.38;2.83;;;8.00;99.90;;;;;;4994575;28;20035;-67
2021/05/10 11:44:34;;;;;;;3.10;2.80;;;8.10;99.90;;;;;;4985282;28;20058;-68
2021/05/10 11:47:02;;;;;;;4.13;2.58;;;8.00;99.90;;;;;;4989055;28;20110;-69
2021/05/10 11:49:33;;;;;;;4.30;3.20;;;8.00;99.90;;;;;;4991480;28;20034;-69
2021/05/10 11:52:01;;;;;;;3.60;3.08;;;8.00;99.90;;;;;;4991669;28;20387;-69
2021/05/10 11:54:29;;;;;;;4.20;2.65;;;8.00;99.90;;;;;;4991395;28;20606;-70
2021/05/10 11:56:56;;;;;;;4.25;2.92;;;8.00;99.90;;;;;;4996007;28;20563;-69
2021/05/10 11:59:52;;;;;;;3.63;2.70;;;8.00;99.90;;;;;;4998448;28;20026;-70
2021/05/10 12:02:25;;;;;;;5.40;3.20;;;8.10;99.90;;;;;;4998333;28;20022;-70
2021/05/10 12:04:52;;;;;;;4.30;3.03;;;8.10;99.90;;;;;;4984733;28;20031;-69
2021/05/10 12:07:20;;;;;;;4.78;3.33;;;8.00;99.90;;;;;;4997697;28;20045;-69
2021/05/10 12:09:58;;;;;;;11.52;8.93;;;8.00;99.90;;;;;;4997428;28;20026;-68
2021/05/10 12:12:37;;;;;;;8.35;5.60;;;8.30;99.90;;;;;;4998223;28;20382;-72
2021/05/10 12:15:10;;;;;;;4.88;3.78;;;8.80;99.90;;;;;;4997400;28;20030;-72
2021/05/10 12:17:38;;;;;;;5.72;3.90;;;8.90;99.90;;;;;;4997894;28;20501;-72
2021/05/10 12:20:12;;;;;;;4.88;3.58;;;8.60;99.90;;;;;;4997978;28;20027;-72
2021/05/10 12:22:46;;;;;;;4.45;3.30;;;8.40;99.90;;;;;;4997929;28;20026;-72
2021/05/10 12:25:21;;;;;;;5.35;3.92;;;8.30;99.90;;;;;;4998297;28;20030;-72
2021/05/10 12:27:58;;;;;;;6.25;4.35;;;8.20;99.90;;;;;;4997862;28;20482;-72
2021/05/10 12:30:30;;;;;;;7.45;3.63;;;8.10;99.90;;;;;;4997635;28;20022;-72
2021/05/10 12:33:14;;;;;;;8.25;4.57;;;8.10;99.90;;;;;;4997935;28;20062;-72
2021/05/10 12:35:45;;;;;;;5.80;4.43;;;8.00;99.90;;;;;;4986333;28;20038;-72
2021/05/10 12:38:11;;;;;;;;;;;8.40;99.90;;;;;;4998824;28;20022;-72
2021/05/10 12:40:42;;;;;;;8.48;5.57;;;8.40;99.90;;;;;;4997581;28;19913;-71
2021/05/10 12:43:18;;;;;;;5.47;4.03;;;8.30;99.90;;;;;;4994339;28;20114;-71
2021/05/10 12:45:45;;;;;;;6.65;4.20;;;8.30;99.90;;;;;;4994928;28;20727;-71
2021/05/10 12:48:15;;;;;;;6.93;4.95;;;8.20;99.90;;;;;;4997673;28;20173;-71
2021/05/10 12:50:52;;;;;;;8.50;4.97;;;8.20;99.90;;;;;;4997674;28;20478;-70
2021/05/10 12:53:52;;;;;;;9.40;4.95;;;8.10;99.90;;;;;;4997891;28;20069;-70
2021/05/10 12:56:19;;;;;;;6.78;4.45;;;8.10;99.90;;;;;;4998041;28;20050;-70
2021/05/10 12:58:47;;;;;;;8.50;4.57;;;8.00;99.90;;;;;;4998180;28;20031;-71
2021/05/10 13:01:16;;;;;;;9.30;5.10;;;8.00;99.90;;;;;;4997830;28;20109;-70
2021/05/10 13:03:46;;;;;;;7.33;5.40;;;8.00;99.90;;;;;;4998026;28;20049;-70
2021/05/10 13:06:24;;;;;;;9.20;4.97;;;8.00;99.90;;;;;;4998064;28;20493;-70
2021/05/10 13:08:51;;;;;;;8.95;5.22;;;8.00;99.90;;;;;;4994267;28;20030;-71
2021/05/10 13:11:23;;;;;;;8.25;5.28;;;7.90;99.90;;;;;;4994666;28;20023;-72
2021/05/10 13:13:58;;;;;;;10.73;5.20;;;7.90;99.90;;;;;;4994287;28;20395;-71
2021/05/10 13:22:38;;;;;;;10.02;5.70;;;8.00;99.90;;;;;;4992923;28;20159;-68
2021/05/10 13:31:29;;;;;;;8.48;5.78;;;8.10;99.90;;;;;;4988839;28;20386;-68
2021/05/10 13:34:12;;;;;;;8.95;5.45;;;8.10;99.90;;;;;;4990702;28;20157;-68
2021/05/10 13:36:44;;;;;;;7.55;5.13;;;8.10;99.90;;;;;;4991697;28;20027;-68
2021/05/10 13:39:15;;;;;;;5.55;4.50;;;8.20;99.90;;;;;;4994052;28;20135;-68
2021/05/10 13:41:46;;;;;;;;;;;8.20;99.90;;;;;;4993860;28;20581;-68
2021/05/10 13:44:13;;;;;;;8.43;4.95;;;8.20;99.90;;;;;;4993751;28;19913;-68
2021/05/10 13:46:40;;;;;;;9.40;5.68;;;8.20;99.90;;;;;;4976224;28;20030;-68
2021/05/10 13:49:06;;;;;;;8.45;5.30;;;8.30;99.90;;;;;;4994180;28;20394;-69
2021/05/10 13:51:34;;;;;;;7.40;4.97;;;8.40;99.90;;;;;;4993859;28;20042;-70
2021/05/10 13:54:00;;;;;;;8.98;4.80;;;8.40;99.90;;;;;;4993659;28;20062;-75
2021/05/10 13:56:27;;;;;;;8.90;5.25;;;8.40;99.90;;;;;;4993479;28;20046;-75
2021/05/10 13:58:53;;;;;;;7.53;4.10;;;8.40;99.90;;;;;;4976483;28;20112;-75
2021/05/10 14:01:19;;;;;;;7.68;4.28;;;8.40;99.90;;;;;;4991885;28;20479;-75
2021/05/10 14:03:45;;;;;;;5.18;3.85;;;8.40;99.90;;;;;;4981878;28;20027;-75
2021/05/10 14:06:12;;;;;;;6.70;4.38;;;8.40;99.90;;;;;;4988132;28;20042;-75
2021/05/10 14:08:38;;;;;;;6.03;3.80;;;8.50;99.90;;;;;;4988038;28;20098;-74
2021/05/10 14:11:05;;;;;;;5.82;4.13;;;8.50;99.90;;;;;;4982501;28;20034;-74
2021/05/10 14:13:32;;;;;;;5.97;3.75;;;8.50;99.90;;;;;;4987807;28;20058;-72
2021/05/10 14:15:59;;;;;;;6.32;3.58;;;8.50;99.90;;;;;;4992833;28;20030;-72
2021/05/10 14:18:28;;;;;;;7.47;3.88;;;8.50;99.90;;;;;;4992126;28;20077;-73
2021/05/10 14:23:39;;;;;;;6.38;4.05;;;8.50;99.90;;;;;;4990680;28;20072;-73
2021/05/10 14:26:06;;;;;;;7.50;3.58;;;8.50;99.90;;;;;;4993026;28;20105;-73
2021/05/10 14:28:31;;;;;;;5.10;3.25;;;8.50;99.90;;;;;;4992812;28;20018;-73
2021/05/10 14:31:01;;;;;;;4.35;2.78;;;8.50;99.90;;;;;;4993086;28;20429;-73
2021/05/10 14:33:30;;;;;;;5.22;3.72;;;8.50;99.90;;;;;;4992968;28;20035;-73
2021/05/10 14:35:57;;;;;;;7.20;3.30;;;8.40;99.90;;;;;;4993057;28;20101;-73
2021/05/10 14:38:27;;;;;;;6.82;3.22;;;8.40;99.90;;;;;;4993246;28;20273;-74
2021/05/10 14:40:54;;;;;;;4.68;2.92;;;8.40;99.90;;;;;;4993402;28;20033;-73
2021/05/10 14:43:20;;;;;;;4.43;3.40;;;8.40;99.90;;;;;;4992945;28;20022;-73
2021/05/10 14:45:46;;;;;;;6.30;3.50;;;8.40;99.90;;;;;;4992620;28;20018;-72
2021/05/10 14:48:13;;;;;;;4.63;3.28;;;8.40;99.90;;;;;;4990176;28;20023;-74
2021/05/10 14:50:39;;;;;;;6.20;3.35;;;8.40;99.90;;;;;;4992003;28;20018;-73
2021/05/10 14:53:05;;;;;;;3.30;2.85;;;8.40;99.90;;;;;;4991003;28;20070;-72
2021/05/10 14:55:31;;;;;;;4.30;2.60;;;8.40;99.90;;;;;;4989340;28;20023;-72
2021/05/10 14:57:57;;;;;;;4.05;3.00;;;8.40;99.90;;;;;;4990546;28;20055;-72
2021/05/10 15:00:23;;;;;;;4.97;3.03;;;8.40;99.90;;;;;;4979103;28;20026;-75
2021/05/10 15:02:49;;;;;;;4.68;3.10;;;8.40;99.90;;;;;;4989397;28;20023;-77
2021/05/10 15:05:15;;;;;;;4.47;2.60;;;8.40;99.90;;;;;;4989334;28;20030;-76
2021/05/10 15:07:40;;;;;;;3.70;2.90;;;8.40;99.90;;;;;;4991315;28;20065;-75
2021/05/10 15:10:06;;;;;;;4.05;2.80;;;8.40;99.90;;;;;;4989075;28;20109;-73
2021/05/10 15:12:32;;;;;;;6.03;2.92;;;8.40;99.90;;;;;;4985868;28;20022;-71
2021/05/10 15:14:58;;;;;;;3.17;2.53;;;8.40;99.90;;;;;;4991550;28;20034;-76
2021/05/10 15:17:24;;;;;;;2.40;2.15;;;8.40;99.90;;;;;;4991965;28;20033;-77
2021/05/10 15:19:49;;;;;;;3.45;2.10;;;8.40;99.90;;;;;;4992024;28;20085;-77
2021/05/10 15:22:15;;;;;;;3.58;2.28;;;8.40;99.90;;;;;;4992028;28;20037;-77
2021/05/10 15:24:41;;;;;;;3.28;1.95;;;8.40;99.90;;;;;;4991770;28;20022;-76
2021/05/10 15:27:07;;;;;;;2.95;2.08;;;8.40;99.90;;;;;;4989344;28;20076;-76
2021/05/10 15:29:33;;;;;;;3.25;2.03;;;8.50;99.90;;;;;;4992085;28;20030;-76
2021/05/10 15:31:59;;;;;;;3.70;2.17;;;8.50;99.90;;;;;;4991481;28;20569;-76
2021/05/10 15:34:25;;;;;;;3.05;2.45;;;8.60;99.90;;;;;;4991628;28;20100;-75
2021/05/10 15:36:52;;;;;;;3.70;2.60;;;8.60;99.90;;;;;;4985516;28;20359;-75
2021/05/10 15:39:18;;;;;;;3.10;2.50;;;8.60;99.90;;;;;;4982279;28;20089;-75
2021/05/10 15:41:44;;;;;;;2.40;2.20;;;8.70;99.90;;;;;;4992568;28;20033;-74
2021/05/10 15:44:09;;;;;;;2.45;1.98;;;8.70;99.90;;;;;;4992841;28;20030;-75
2021/05/10 15:46:35;;;;;;;2.97;1.90;;;8.70;99.90;;;;;;4975573;28;20026;-75
2021/05/10 15:49:01;;;;;;;2.75;2.00;;;8.80;99.90;;;;;;5005614;28;20026;-75
2021/05/10 15:51:27;;;;;;;3.28;2.38;;;8.80;99.90;;;;;;4986574;28;20360;-73
2021/05/10 15:53:52;;;;;;;4.72;2.28;;;8.80;99.90;;;;;;4992934;28;20038;-73
2021/05/10 15:56:19;;;;;;;2.17;1.83;;;8.80;99.90;;;;;;4974419;28;20129;-73
2021/05/10 15:58:45;;;;;;;2.30;2.10;;;8.80;99.90;;;;;;4977698;28;20033;-73
2021/05/10 16:01:11;;;;;;;3.58;2.15;;;8.70;99.90;;;;;;4972460;28;20391;-72
2021/05/10 16:03:38;;;;;;;3.10;2.38;;;8.70;99.90;;;;;;4972691;28;20114;-78
2021/05/10 16:06:04;;;;;;;3.40;2.40;;;8.70;99.90;;;;;;4972368;28;20054;-77
2021/05/10 16:08:30;;;;;;;3.72;2.45;;;8.70;99.90;;;;;;4972600;28;20062;-78
2021/05/10 16:10:56;;;;;;;5.40;2.65;;;8.70;99.90;;;;;;4974364;28;20475;-77
2021/05/10 16:13:22;;;;;;;2.58;2.38;;;8.80;99.90;;;;;;4964782;28;20479;-79
2021/05/10 16:15:48;;;;;;;3.58;2.83;;;8.80;99.90;;;;;;4991846;28;20026;-76
2021/05/10 16:18:14;;;;;;;3.55;2.35;;;8.90;99.90;;;;;;4991788;28;20394;-79
2021/05/10 16:20:40;;;;;;;3.50;2.30;;;10.20;99.90;;;;;;4991866;28;20030;-80
2021/05/10 16:23:05;;;;;;;3.08;2.42;;;10.30;99.90;;;;;;4991852;28;20154;-80
2021/05/10 16:25:32;;;;;;;3.35;2.63;;;9.80;99.90;;;;;;4991802;28;20085;-79
2021/05/10 16:28:01;;;;;;;4.72;2.83;;;9.50;99.90;;;;;;4991813;28;20022;-80
2021/05/10 16:30:27;;;;;;;3.33;2.90;;;9.30;99.90;;;;;;4991952;28;20053;-77
2021/05/10 16:32:53;;;;;;;3.70;2.90;;;9.20;99.90;;;;;;4991974;28;20103;-78
2021/05/10 16:35:20;;;;;;;4.20;3.00;;;9.10;99.90;;;;;;4991496;28;20522;-79
2021/05/10 16:37:46;;;;;;;3.95;3.15;;;9.00;99.90;;;;;;4991547;28;20110;-80
2021/05/10 16:40:13;;;;;;;3.90;3.00;;;8.90;99.90;;;;;;4991494;28;20121;-79
2021/05/10 16:42:39;;;;;;;4.25;3.10;;;8.90;99.90;;;;;;4992882;28;20026;-79
2021/05/10 16:45:06;;;;;;;4.07;3.25;;;8.90;99.90;;;;;;4995466;28;20119;-79
2021/05/10 16:47:32;;;;;;;5.22;3.75;;;8.90;99.90;;;;;;4974121;28;20119;-80
2021/05/10 16:50:01;;;;;;;3.20;2.78;;;8.90;99.90;;;;;;4975604;28;20050;-81
2021/05/10 16:52:27;;;;;;;5.22;3.45;;;8.90;99.90;;;;;;4995620;28;20027;-78
2021/05/10 16:54:53;;;;;;;7.97;3.92;;;8.80;99.90;;;;;;4981087;28;20081;-78
2021/05/10 16:57:19;;;;;;;5.25;3.70;;;8.80;99.90;;;;;;4991518;28;20130;-79
2021/05/10 16:59:45;;;;;;;6.35;3.30;;;8.70;99.90;;;;;;4983387;28;20038;-78
2021/05/10 17:02:11;;;;;;;4.15;3.28;;;8.70;99.90;;;;;;4993983;28;20022;-79
2021/05/10 17:04:37;;;;;;;10.30;3.53;;;8.70;99.90;;;;;;4994510;28;20054;-79
2021/05/10 17:07:03;;;;;;;7.57;3.38;;;8.80;99.90;;;;;;4994331;28;20023;-79
2021/05/10 17:09:28;;;;;;;3.42;3.03;;;8.80;99.90;;;;;;4994431;28;20449;-78
2021/05/10 17:11:54;;;;;;;3.78;3.05;;;8.80;99.90;;;;;;4994531;28;20029;-78
2021/05/10 17:14:20;;;;;;;4.43;3.10;;;8.90;99.90;;;;;;4994861;28;20073;-79
2021/05/10 17:16:45;;;;;;;6.97;3.50;;;8.90;99.90;;;;;;4994271;28;20394;-78
2021/05/10 17:19:11;;;;;;;6.68;3.58;;;8.90;99.90;;;;;;4994423;28;20091;-78
2021/05/10 17:21:37;;;;;;;4.80;3.17;;;8.90;99.90;;;;;;4994326;28;20095;-77